Aviation Digital Data Service (ADDS)

Output produced by METARs form (2034 UTC 27 April 2017)
found at http://aviationweather.gov/adds/metars/
 
KTOL 271809Z 2718/2818 24015G25KT P6SM SCT025 BKN040 
     TEMPO 2720/2724 BKN025 
     FM280000 25012KT P6SM BKN025 
     FM281500 18007KT P6SM SCT035 BKN110